sensor_id;sensor_type;location;lat;lon;timestamp;P1;durP1;ratioP1;P2;durP2;ratioP2
57231;SDS011;43488;46.934;8.276;2023-05-07T00:00:09;949.65;;;811.20;;
57231;SDS011;43488;46.934;8.276;2023-05-07T00:02:38;971.60;;;753.83;;
57231;SDS011;43488;46.934;8.276;2023-05-07T00:05:05;951.97;;;800.75;;
57231;SDS011;43488;46.934;8.276;2023-05-07T00:07:33;936.95;;;788.55;;
57231;SDS011;43488;46.934;8.276;2023-05-07T00:10:04;976.25;;;764.72;;
57231;SDS011;43488;46.934;8.276;2023-05-07T00:12:40;934.72;;;781.95;;
57231;SDS011;43488;46.934;8.276;2023-05-07T00:17:55;966.83;;;753.38;;
57231;SDS011;43488;46.934;8.276;2023-05-07T00:20:22;954.00;;;807.88;;
57231;SDS011;43488;46.934;8.276;2023-05-07T00:22:50;974.88;;;742.00;;
57231;SDS011;43488;46.934;8.276;2023-05-07T00:25:17;966.25;;;742.08;;
57231;SDS011;43488;46.934;8.276;2023-05-07T00:27:58;967.20;;;750.15;;
57231;SDS011;43488;46.934;8.276;2023-05-07T00:30:30;966.90;;;817.65;;
57231;SDS011;43488;46.934;8.276;2023-05-07T00:33:03;970.03;;;742.35;;
57231;SDS011;43488;46.934;8.276;2023-05-07T00:35:30;952.55;;;796.45;;
57231;SDS011;43488;46.934;8.276;2023-05-07T00:37:58;964.78;;;749.15;;
57231;SDS011;43488;46.934;8.276;2023-05-07T00:40:25;951.95;;;810.75;;
57231;SDS011;43488;46.934;8.276;2023-05-07T00:42:52;969.05;;;744.60;;
57231;SDS011;43488;46.934;8.276;2023-05-07T00:45:30;981.55;;;751.35;;
57231;SDS011;43488;46.934;8.276;2023-05-07T00:48:00;961.33;;;748.63;;
57231;SDS011;43488;46.934;8.276;2023-05-07T00:50:28;975.97;;;758.27;;
57231;SDS011;43488;46.934;8.276;2023-05-07T00:52:57;974.53;;;750.03;;
57231;SDS011;43488;46.934;8.276;2023-05-07T00:55:26;947.95;;;800.30;;
57231;SDS011;43488;46.934;8.276;2023-05-07T00:57:57;964.08;;;744.78;;
57231;SDS011;43488;46.934;8.276;2023-05-07T01:00:24;953.67;;;813.28;;
57231;SDS011;43488;46.934;8.276;2023-05-07T01:02:57;967.97;;;744.58;;
57231;SDS011;43488;46.934;8.276;2023-05-07T01:05:25;941.78;;;787.83;;
57231;SDS011;43488;46.934;8.276;2023-05-07T01:07:54;929.60;;;780.60;;
57231;SDS011;43488;46.934;8.276;2023-05-07T01:10:23;981.38;;;768.17;;
57231;SDS011;43488;46.934;8.276;2023-05-07T01:12:51;938.63;;;786.53;;
57231;SDS011;43488;46.934;8.276;2023-05-07T01:15:32;951.67;;;798.37;;
57231;SDS011;43488;46.934;8.276;2023-05-07T01:18:11;929.92;;;797.00;;
57231;SDS011;43488;46.934;8.276;2023-05-07T01:20:39;943.83;;;796.92;;
57231;SDS011;43488;46.934;8.276;2023-05-07T01:23:07;963.85;;;743.10;;
57231;SDS011;43488;46.934;8.276;2023-05-07T01:28:07;961.45;;;741.75;;
57231;SDS011;43488;46.934;8.276;2023-05-07T01:30:37;944.42;;;814.28;;
57231;SDS011;43488;46.934;8.276;2023-05-07T01:33:14;941.42;;;784.22;;
57231;SDS011;43488;46.934;8.276;2023-05-07T01:35:45;945.03;;;775.95;;
57231;SDS011;43488;46.934;8.276;2023-05-07T01:38:42;970.28;;;748.00;;
57231;SDS011;43488;46.934;8.276;2023-05-07T01:41:11;966.17;;;768.65;;
57231;SDS011;43488;46.934;8.276;2023-05-07T01:43:48;954.95;;;737.90;;
57231;SDS011;43488;46.934;8.276;2023-05-07T01:46:18;970.03;;;756.22;;
57231;SDS011;43488;46.934;8.276;2023-05-07T01:48:46;956.15;;;750.42;;
57231;SDS011;43488;46.934;8.276;2023-05-07T01:51:14;961.42;;;762.53;;
57231;SDS011;43488;46.934;8.276;2023-05-07T01:53:43;958.72;;;740.80;;
57231;SDS011;43488;46.934;8.276;2023-05-07T01:56:12;936.60;;;774.80;;
57231;SDS011;43488;46.934;8.276;2023-05-07T01:58:40;925.75;;;781.33;;
57231;SDS011;43488;46.934;8.276;2023-05-07T02:01:07;967.92;;;765.38;;
57231;SDS011;43488;46.934;8.276;2023-05-07T02:03:35;939.30;;;790.75;;
57231;SDS011;43488;46.934;8.276;2023-05-07T02:06:02;975.55;;;765.80;;
57231;SDS011;43488;46.934;8.276;2023-05-07T02:08:29;970.67;;;750.10;;
57231;SDS011;43488;46.934;8.276;2023-05-07T02:11:06;980.97;;;780.78;;
57231;SDS011;43488;46.934;8.276;2023-05-07T02:13:36;960.20;;;740.58;;
57231;SDS011;43488;46.934;8.276;2023-05-07T02:16:03;981.53;;;761.67;;
57231;SDS011;43488;46.934;8.276;2023-05-07T02:18:32;936.15;;;789.63;;
57231;SDS011;43488;46.934;8.276;2023-05-07T02:20:59;973.13;;;762.13;;
57231;SDS011;43488;46.934;8.276;2023-05-07T02:23:26;952.58;;;730.45;;
57231;SDS011;43488;46.934;8.276;2023-05-07T02:26:00;982.70;;;763.90;;
57231;SDS011;43488;46.934;8.276;2023-05-07T02:28:27;954.63;;;741.15;;
57231;SDS011;43488;46.934;8.276;2023-05-07T02:30:54;971.08;;;768.72;;
57231;SDS011;43488;46.934;8.276;2023-05-07T02:33:22;957.75;;;736.63;;
57231;SDS011;43488;46.934;8.276;2023-05-07T02:35:49;952.13;;;799.80;;
57231;SDS011;43488;46.934;8.276;2023-05-07T02:38:18;932.33;;;777.03;;
57231;SDS011;43488;46.934;8.276;2023-05-07T02:40:49;937.75;;;799.10;;
57231;SDS011;43488;46.934;8.276;2023-05-07T02:43:17;966.40;;;747.97;;
57231;SDS011;43488;46.934;8.276;2023-05-07T02:45:44;980.38;;;753.97;;
57231;SDS011;43488;46.934;8.276;2023-05-07T02:48:24;924.60;;;774.72;;
57231;SDS011;43488;46.934;8.276;2023-05-07T02:50:54;983.00;;;773.95;;
57231;SDS011;43488;46.934;8.276;2023-05-07T02:53:28;930.03;;;774.88;;
57231;SDS011;43488;46.934;8.276;2023-05-07T02:55:56;971.75;;;750.88;;
57231;SDS011;43488;46.934;8.276;2023-05-07T02:58:46;952.60;;;736.58;;
57231;SDS011;43488;46.934;8.276;2023-05-07T03:01:13;937.33;;;797.83;;
57231;SDS011;43488;46.934;8.276;2023-05-07T03:03:41;928.47;;;781.50;;
57231;SDS011;43488;46.934;8.276;2023-05-07T03:06:08;960.97;;;742.67;;
57231;SDS011;43488;46.934;8.276;2023-05-07T03:08:36;933.15;;;789.63;;
57231;SDS011;43488;46.934;8.276;2023-05-07T03:11:04;946.55;;;807.55;;
57231;SDS011;43488;46.934;8.276;2023-05-07T03:13:31;934.17;;;783.60;;
57231;SDS011;43488;46.934;8.276;2023-05-07T03:16:12;963.00;;;742.22;;
57231;SDS011;43488;46.934;8.276;2023-05-07T03:18:46;962.37;;;748.47;;
57231;SDS011;43488;46.934;8.276;2023-05-07T03:21:14;971.30;;;767.70;;
57231;SDS011;43488;46.934;8.276;2023-05-07T03:23:42;930.08;;;777.15;;
57231;SDS011;43488;46.934;8.276;2023-05-07T03:26:09;936.00;;;784.80;;
57231;SDS011;43488;46.934;8.276;2023-05-07T03:28:37;931.45;;;784.60;;
57231;SDS011;43488;46.934;8.276;2023-05-07T03:31:05;941.42;;;801.05;;
57231;SDS011;43488;46.934;8.276;2023-05-07T03:33:38;931.65;;;781.75;;
57231;SDS011;43488;46.934;8.276;2023-05-07T03:36:18;940.83;;;791.08;;
57231;SDS011;43488;46.934;8.276;2023-05-07T03:38:46;924.58;;;782.15;;
57231;SDS011;43488;46.934;8.276;2023-05-07T03:41:17;971.17;;;763.60;;
57231;SDS011;43488;46.934;8.276;2023-05-07T03:43:45;932.97;;;784.03;;
57231;SDS011;43488;46.934;8.276;2023-05-07T03:46:21;968.45;;;744.65;;
57231;SDS011;43488;46.934;8.276;2023-05-07T03:48:54;927.85;;;789.13;;
57231;SDS011;43488;46.934;8.276;2023-05-07T03:52:04;960.22;;;743.17;;
57231;SDS011;43488;46.934;8.276;2023-05-07T03:54:36;948.95;;;721.47;;
57231;SDS011;43488;46.934;8.276;2023-05-07T03:57:05;936.53;;;787.97;;
57231;SDS011;43488;46.934;8.276;2023-05-07T03:59:32;962.67;;;747.08;;
57231;SDS011;43488;46.934;8.276;2023-05-07T04:01:59;972.10;;;782.17;;
57231;SDS011;43488;46.934;8.276;2023-05-07T04:04:30;930.55;;;778.50;;
57231;SDS011;43488;46.934;8.276;2023-05-07T04:07:07;933.35;;;784.50;;
57231;SDS011;43488;46.934;8.276;2023-05-07T04:09:37;941.17;;;784.53;;
57231;SDS011;43488;46.934;8.276;2023-05-07T04:12:17;973.88;;;774.83;;
57231;SDS011;43488;46.934;8.276;2023-05-07T04:14:47;943.90;;;728.38;;
57231;SDS011;43488;46.934;8.276;2023-05-07T04:17:14;968.58;;;764.90;;
57231;SDS011;43488;46.934;8.276;2023-05-07T04:19:42;924.08;;;778.88;;
57231;SDS011;43488;46.934;8.276;2023-05-07T04:22:11;977.90;;;788.72;;
57231;SDS011;43488;46.934;8.276;2023-05-07T04:24:39;952.60;;;732.20;;
57231;SDS011;43488;46.934;8.276;2023-05-07T04:27:06;936.72;;;789.10;;
57231;SDS011;43488;46.934;8.276;2023-05-07T04:29:33;934.28;;;789.03;;
57231;SDS011;43488;46.934;8.276;2023-05-07T04:32:00;937.00;;;803.33;;
57231;SDS011;43488;46.934;8.276;2023-05-07T04:34:28;958.03;;;733.92;;
57231;SDS011;43488;46.934;8.276;2023-05-07T04:36:57;936.40;;;784.05;;
57231;SDS011;43488;46.934;8.276;2023-05-07T04:39:25;925.78;;;782.67;;
57231;SDS011;43488;46.934;8.276;2023-05-07T04:41:53;940.47;;;808.72;;
57231;SDS011;43488;46.934;8.276;2023-05-07T04:44:21;929.53;;;777.63;;
57231;SDS011;43488;46.934;8.276;2023-05-07T04:46:48;962.20;;;747.85;;
57231;SDS011;43488;46.934;8.276;2023-05-07T04:49:15;961.17;;;756.13;;
57231;SDS011;43488;46.934;8.276;2023-05-07T04:51:43;935.83;;;805.17;;
57231;SDS011;43488;46.934;8.276;2023-05-07T04:54:10;968.88;;;756.40;;
57231;SDS011;43488;46.934;8.276;2023-05-07T04:56:38;957.45;;;737.72;;
57231;SDS011;43488;46.934;8.276;2023-05-07T04:59:05;931.72;;;790.25;;
57231;SDS011;43488;46.934;8.276;2023-05-07T05:01:33;968.35;;;772.15;;
57231;SDS011;43488;46.934;8.276;2023-05-07T05:04:00;950.50;;;747.50;;
57231;SDS011;43488;46.934;8.276;2023-05-07T05:06:27;960.55;;;745.85;;
57231;SDS011;43488;46.934;8.276;2023-05-07T05:08:55;956.97;;;739.90;;
57231;SDS011;43488;46.934;8.276;2023-05-07T05:11:22;973.22;;;762.75;;
57231;SDS011;43488;46.934;8.276;2023-05-07T05:13:50;948.38;;;729.55;;
57231;SDS011;43488;46.934;8.276;2023-05-07T05:16:17;935.20;;;789.35;;
57231;SDS011;43488;46.934;8.276;2023-05-07T05:18:44;930.20;;;783.92;;
57231;SDS011;43488;46.934;8.276;2023-05-07T05:21:15;964.03;;;761.22;;
57231;SDS011;43488;46.934;8.276;2023-05-07T05:23:43;953.33;;;737.75;;
57231;SDS011;43488;46.934;8.276;2023-05-07T05:26:10;966.70;;;751.45;;
57231;SDS011;43488;46.934;8.276;2023-05-07T05:28:37;952.17;;;737.80;;
57231;SDS011;43488;46.934;8.276;2023-05-07T05:31:05;950.47;;;811.60;;
57231;SDS011;43488;46.934;8.276;2023-05-07T05:33:32;935.42;;;797.10;;
57231;SDS011;43488;46.934;8.276;2023-05-07T05:36:00;960.95;;;748.78;;
57231;SDS011;43488;46.934;8.276;2023-05-07T05:38:33;932.70;;;794.17;;
57231;SDS011;43488;46.934;8.276;2023-05-07T05:41:01;951.17;;;827.40;;
57231;SDS011;43488;46.934;8.276;2023-05-07T05:43:34;960.45;;;739.85;;
57231;SDS011;43488;46.934;8.276;2023-05-07T05:46:01;941.35;;;789.78;;
57231;SDS011;43488;46.934;8.276;2023-05-07T05:48:33;942.92;;;804.35;;
57231;SDS011;43488;46.934;8.276;2023-05-07T05:51:00;946.53;;;812.03;;
57231;SDS011;43488;46.934;8.276;2023-05-07T05:53:28;940.55;;;786.00;;
57231;SDS011;43488;46.934;8.276;2023-05-07T05:56:07;937.40;;;792.15;;
57231;SDS011;43488;46.934;8.276;2023-05-07T05:58:41;958.63;;;740.58;;
57231;SDS011;43488;46.934;8.276;2023-05-07T06:01:20;978.40;;;767.05;;
57231;SDS011;43488;46.934;8.276;2023-05-07T06:03:56;937.90;;;789.00;;
57231;SDS011;43488;46.934;8.276;2023-05-07T06:06:24;974.78;;;754.40;;
57231;SDS011;43488;46.934;8.276;2023-05-07T06:08:52;942.08;;;788.25;;
57231;SDS011;43488;46.934;8.276;2023-05-07T06:11:19;974.60;;;762.22;;
57231;SDS011;43488;46.934;8.276;2023-05-07T06:13:47;939.10;;;786.95;;
57231;SDS011;43488;46.934;8.276;2023-05-07T06:16:15;944.38;;;793.85;;
57231;SDS011;43488;46.934;8.276;2023-05-07T06:18:42;965.83;;;750.35;;
57231;SDS011;43488;46.934;8.276;2023-05-07T06:21:14;975.67;;;767.92;;
57231;SDS011;43488;46.934;8.276;2023-05-07T06:23:50;966.13;;;747.53;;
57231;SDS011;43488;46.934;8.276;2023-05-07T06:26:18;980.13;;;756.30;;
57231;SDS011;43488;46.934;8.276;2023-05-07T06:28:46;966.70;;;753.70;;
57231;SDS011;43488;46.934;8.276;2023-05-07T06:31:17;980.78;;;773.08;;
57231;SDS011;43488;46.934;8.276;2023-05-07T06:34:04;968.35;;;752.33;;
57231;SDS011;43488;46.934;8.276;2023-05-07T06:36:31;946.58;;;794.72;;
57231;SDS011;43488;46.934;8.276;2023-05-07T06:38:58;964.78;;;747.15;;
57231;SDS011;43488;46.934;8.276;2023-05-07T06:41:49;954.20;;;816.97;;
57231;SDS011;43488;46.934;8.276;2023-05-07T06:44:16;971.30;;;750.03;;
57231;SDS011;43488;46.934;8.276;2023-05-07T06:46:44;974.33;;;754.50;;
57231;SDS011;43488;46.934;8.276;2023-05-07T06:49:14;968.45;;;751.33;;
57231;SDS011;43488;46.934;8.276;2023-05-07T06:51:42;956.97;;;817.60;;
57231;SDS011;43488;46.934;8.276;2023-05-07T06:54:10;973.45;;;753.17;;
57231;SDS011;43488;46.934;8.276;2023-05-07T06:56:37;954.95;;;797.58;;
57231;SDS011;43488;46.934;8.276;2023-05-07T06:59:05;941.17;;;798.42;;
57231;SDS011;43488;46.934;8.276;2023-05-07T07:01:36;955.00;;;810.60;;
57231;SDS011;43488;46.934;8.276;2023-05-07T07:04:03;973.53;;;750.30;;
57231;SDS011;43488;46.934;8.276;2023-05-07T07:06:31;962.63;;;805.50;;
57231;SDS011;43488;46.934;8.276;2023-05-07T07:08:59;972.85;;;752.08;;
57231;SDS011;43488;46.934;8.276;2023-05-07T07:11:26;962.13;;;811.80;;
57231;SDS011;43488;46.934;8.276;2023-05-07T07:13:53;975.80;;;754.15;;
57231;SDS011;43488;46.934;8.276;2023-05-07T07:16:21;957.53;;;803.47;;
57231;SDS011;43488;46.934;8.276;2023-05-07T07:18:48;976.70;;;758.80;;
57231;SDS011;43488;46.934;8.276;2023-05-07T07:21:36;1002.40;;;788.08;;
57231;SDS011;43488;46.934;8.276;2023-05-07T07:24:09;979.70;;;757.80;;
57231;SDS011;43488;46.934;8.276;2023-05-07T07:26:36;990.67;;;765.83;;
57231;SDS011;43488;46.934;8.276;2023-05-07T07:29:03;962.50;;;794.67;;
57231;SDS011;43488;46.934;8.276;2023-05-07T07:31:31;996.85;;;787.60;;
57231;SDS011;43488;46.934;8.276;2023-05-07T07:33:58;961.50;;;796.22;;
57231;SDS011;43488;46.934;8.276;2023-05-07T07:36:25;970.42;;;805.30;;
57231;SDS011;43488;46.934;8.276;2023-05-07T07:39:32;985.50;;;762.30;;
57231;SDS011;43488;46.934;8.276;2023-05-07T07:41:59;996.70;;;785.72;;
57231;SDS011;43488;46.934;8.276;2023-05-07T07:44:27;974.28;;;800.58;;
57231;SDS011;43488;46.934;8.276;2023-05-07T07:46:55;972.17;;;808.70;;
57231;SDS011;43488;46.934;8.276;2023-05-07T07:49:22;985.15;;;765.30;;
57231;SDS011;43488;46.934;8.276;2023-05-07T07:51:55;975.65;;;823.88;;
57231;SDS011;43488;46.934;8.276;2023-05-07T07:54:25;990.60;;;766.33;;
57231;SDS011;43488;46.934;8.276;2023-05-07T07:56:52;1029.05;;;826.58;;
57231;SDS011;43488;46.934;8.276;2023-05-07T07:59:20;1009.30;;;823.70;;
57231;SDS011;43488;46.934;8.276;2023-05-07T08:01:48;1005.08;;;837.55;;
57231;SDS011;43488;46.934;8.276;2023-05-07T08:04:17;993.42;;;809.72;;
57231;SDS011;43488;46.934;8.276;2023-05-07T08:06:44;1017.33;;;780.67;;
57231;SDS011;43488;46.934;8.276;2023-05-07T08:09:13;987.42;;;811.50;;
57231;SDS011;43488;46.934;8.276;2023-05-07T08:11:41;1009.15;;;834.70;;
57231;SDS011;43488;46.934;8.276;2023-05-07T08:14:09;1017.60;;;782.65;;
57231;SDS011;43488;46.934;8.276;2023-05-07T08:16:37;1011.05;;;819.05;;
57231;SDS011;43488;46.934;8.276;2023-05-07T08:19:05;990.53;;;820.72;;
57231;SDS011;43488;46.934;8.276;2023-05-07T08:21:41;1017.70;;;839.83;;
57231;SDS011;43488;46.934;8.276;2023-05-07T08:24:09;1011.25;;;778.85;;
57231;SDS011;43488;46.934;8.276;2023-05-07T08:26:36;1017.95;;;788.72;;
57231;SDS011;43488;46.934;8.276;2023-05-07T08:29:15;989.50;;;815.00;;
57231;SDS011;43488;46.934;8.276;2023-05-07T08:31:43;1022.10;;;801.95;;
57231;SDS011;43488;46.934;8.276;2023-05-07T08:34:10;992.47;;;817.20;;
57231;SDS011;43488;46.934;8.276;2023-05-07T08:36:49;1019.83;;;784.28;;
57231;SDS011;43488;46.934;8.276;2023-05-07T08:39:20;1004.90;;;781.38;;
57231;SDS011;43488;46.934;8.276;2023-05-07T08:41:48;998.50;;;832.78;;
57231;SDS011;43488;46.934;8.276;2023-05-07T08:44:21;1010.08;;;778.83;;
57231;SDS011;43488;46.934;8.276;2023-05-07T08:47:01;1000.50;;;822.70;;
57231;SDS011;43488;46.934;8.276;2023-05-07T08:49:44;1007.80;;;780.15;;
57231;SDS011;43488;46.934;8.276;2023-05-07T08:54:54;1010.00;;;778.80;;
57231;SDS011;43488;46.934;8.276;2023-05-07T08:57:21;997.20;;;821.88;;
57231;SDS011;43488;46.934;8.276;2023-05-07T08:59:59;1013.95;;;788.45;;
57231;SDS011;43488;46.934;8.276;2023-05-07T09:02:27;1015.13;;;839.10;;
57231;SDS011;43488;46.934;8.276;2023-05-07T09:04:57;1004.95;;;810.20;;
57231;SDS011;43488;46.934;8.276;2023-05-07T09:07:24;1026.78;;;789.95;;
57231;SDS011;43488;46.934;8.276;2023-05-07T09:09:53;1007.85;;;782.15;;
57231;SDS011;43488;46.934;8.276;2023-05-07T09:12:32;1031.18;;;804.13;;
57231;SDS011;43488;46.934;8.276;2023-05-07T09:16:23;996.67;;;811.22;;
57231;SDS011;43488;46.934;8.276;2023-05-07T09:22:03;1000.58;;;823.03;;
57231;SDS011;43488;46.934;8.276;2023-05-07T09:24:33;1038.78;;;812.90;;
57231;SDS011;43488;46.934;8.276;2023-05-07T09:30:39;1019.88;;;787.47;;
57231;SDS011;43488;46.934;8.276;2023-05-07T09:33:07;1014.95;;;787.90;;
57231;SDS011;43488;46.934;8.276;2023-05-07T09:35:34;1008.03;;;840.72;;
57231;SDS011;43488;46.934;8.276;2023-05-07T09:38:07;1017.95;;;783.28;;
57231;SDS011;43488;46.934;8.276;2023-05-07T09:41:36;1019.75;;;787.03;;
57231;SDS011;43488;46.934;8.276;2023-05-07T09:44:38;1015.47;;;790.85;;
57231;SDS011;43488;46.934;8.276;2023-05-07T09:47:05;1010.88;;;841.33;;
57231;SDS011;43488;46.934;8.276;2023-05-07T09:49:34;1013.03;;;823.25;;
57231;SDS011;43488;46.934;8.276;2023-05-07T09:52:28;1000.67;;;812.60;;
57231;SDS011;43488;46.934;8.276;2023-05-07T09:54:59;1015.08;;;790.75;;
57231;SDS011;43488;46.934;8.276;2023-05-07T09:57:31;1030.88;;;808.80;;
57231;SDS011;43488;46.934;8.276;2023-05-07T10:00:09;1000.40;;;817.42;;
57231;SDS011;43488;46.934;8.276;2023-05-07T10:02:45;1004.60;;;821.92;;
57231;SDS011;43488;46.934;8.276;2023-05-07T10:05:25;994.10;;;825.10;;
57231;SDS011;43488;46.934;8.276;2023-05-07T10:07:53;1006.38;;;837.25;;
57231;SDS011;43488;46.934;8.276;2023-05-07T10:10:29;1003.60;;;814.78;;
57231;SDS011;43488;46.934;8.276;2023-05-07T10:13:00;1020.80;;;786.38;;
57231;SDS011;43488;46.934;8.276;2023-05-07T10:15:32;1014.80;;;786.65;;
57231;SDS011;43488;46.934;8.276;2023-05-07T10:18:00;1010.97;;;839.92;;
57231;SDS011;43488;46.934;8.276;2023-05-07T10:20:31;1002.95;;;813.15;;
57231;SDS011;43488;46.934;8.276;2023-05-07T10:23:04;1020.20;;;785.65;;
57231;SDS011;43488;46.934;8.276;2023-05-07T10:25:33;1001.78;;;817.95;;
57231;SDS011;43488;46.934;8.276;2023-05-07T10:28:04;1031.25;;;806.28;;
57231;SDS011;43488;46.934;8.276;2023-05-07T10:33:28;1007.43;;;819.70;;
57231;SDS011;43488;46.934;8.276;2023-05-07T10:36:00;1018.20;;;788.10;;
57231;SDS011;43488;46.934;8.276;2023-05-07T10:38:31;1035.15;;;813.50;;
57231;SDS011;43488;46.934;8.276;2023-05-07T10:40:58;1026.28;;;795.78;;
57231;SDS011;43488;46.934;8.276;2023-05-07T10:43:26;1015.88;;;826.33;;
57231;SDS011;43488;46.934;8.276;2023-05-07T10:46:30;1009.05;;;827.33;;
57231;SDS011;43488;46.934;8.276;2023-05-07T10:51:31;1040.25;;;800.63;;
57231;SDS011;43488;46.934;8.276;2023-05-07T10:56:42;1013.17;;;830.15;;
57231;SDS011;43488;46.934;8.276;2023-05-07T11:02:08;1036.25;;;802.97;;
57231;SDS011;43488;46.934;8.276;2023-05-07T11:04:42;1049.15;;;813.70;;
57231;SDS011;43488;46.934;8.276;2023-05-07T11:07:25;1016.42;;;841.40;;
57231;SDS011;43488;46.934;8.276;2023-05-07T11:09:55;1028.18;;;853.97;;
57231;SDS011;43488;46.934;8.276;2023-05-07T11:17:35;1040.40;;;813.65;;
57231;SDS011;43488;46.934;8.276;2023-05-07T11:26:08;1044.78;;;811.53;;
57231;SDS011;43488;46.934;8.276;2023-05-07T11:28:38;1020.95;;;840.15;;
57231;SDS011;43488;46.934;8.276;2023-05-07T11:31:08;1031.78;;;860.08;;
57231;SDS011;43488;46.934;8.276;2023-05-07T11:33:38;1024.40;;;836.55;;
57231;SDS011;43488;46.934;8.276;2023-05-07T11:36:05;1070.72;;;822.17;;
57231;SDS011;43488;46.934;8.276;2023-05-07T11:38:38;1047.90;;;814.97;;
57231;SDS011;43488;46.934;8.276;2023-05-07T11:41:05;1065.95;;;840.60;;
57231;SDS011;43488;46.934;8.276;2023-05-07T11:43:33;1040.38;;;812.80;;
57231;SDS011;43488;46.934;8.276;2023-05-07T11:46:08;1047.22;;;820.08;;
57231;SDS011;43488;46.934;8.276;2023-05-07T11:48:37;1029.78;;;839.05;;
57231;SDS011;43488;46.934;8.276;2023-05-07T11:51:08;1060.80;;;836.78;;
57231;SDS011;43488;46.934;8.276;2023-05-07T11:53:39;1046.97;;;814.70;;
57231;SDS011;43488;46.934;8.276;2023-05-07T11:56:17;1034.70;;;843.22;;
57231;SDS011;43488;46.934;8.276;2023-05-07T11:58:46;1048.97;;;827.80;;
57231;SDS011;43488;46.934;8.276;2023-05-07T12:01:22;1066.20;;;832.88;;
57231;SDS011;43488;46.934;8.276;2023-05-07T12:03:49;1053.60;;;819.97;;
57231;SDS011;43488;46.934;8.276;2023-05-07T12:06:17;1064.75;;;830.88;;
57231;SDS011;43488;46.934;8.276;2023-05-07T12:09:02;1039.20;;;844.45;;
57231;SDS011;43488;46.934;8.276;2023-05-07T12:11:45;1063.70;;;864.65;;
57231;SDS011;43488;46.934;8.276;2023-05-07T12:14:26;1029.55;;;840.45;;
57231;SDS011;43488;46.934;8.276;2023-05-07T12:17:23;1031.35;;;842.83;;
57231;SDS011;43488;46.934;8.276;2023-05-07T12:22:31;1062.75;;;831.92;;
57231;SDS011;43488;46.934;8.276;2023-05-07T12:25:08;1043.22;;;809.88;;
57231;SDS011;43488;46.934;8.276;2023-05-07T12:27:39;1049.45;;;814.10;;
57231;SDS011;43488;46.934;8.276;2023-05-07T12:30:10;1043.45;;;817.20;;
57231;SDS011;43488;46.934;8.276;2023-05-07T12:32:41;1031.40;;;857.97;;
57231;SDS011;43488;46.934;8.276;2023-05-07T12:37:46;1042.18;;;806.63;;
57231;SDS011;43488;46.934;8.276;2023-05-07T12:43:03;1030.35;;;854.67;;
57231;SDS011;43488;46.934;8.276;2023-05-07T12:45:37;1023.33;;;834.33;;
57231;SDS011;43488;46.934;8.276;2023-05-07T12:48:09;1020.17;;;836.20;;
57231;SDS011;43488;46.934;8.276;2023-05-07T12:50:40;1036.85;;;805.88;;
57231;SDS011;43488;46.934;8.276;2023-05-07T12:53:08;1052.03;;;823.38;;
57231;SDS011;43488;46.934;8.276;2023-05-07T12:58:14;1019.97;;;834.58;;
57231;SDS011;43488;46.934;8.276;2023-05-07T13:00:55;1022.75;;;794.22;;
57231;SDS011;43488;46.934;8.276;2023-05-07T13:03:26;1035.22;;;817.08;;
57231;SDS011;43488;46.934;8.276;2023-05-07T13:06:00;1023.22;;;801.22;;
57231;SDS011;43488;46.934;8.276;2023-05-07T13:08:34;1025.93;;;836.58;;
57231;SDS011;43488;46.934;8.276;2023-05-07T13:11:10;1026.85;;;799.67;;
57231;SDS011;43488;46.934;8.276;2023-05-07T13:13:40;1019.75;;;847.60;;
57231;SDS011;43488;46.934;8.276;2023-05-07T13:16:09;1040.50;;;801.50;;
57231;SDS011;43488;46.934;8.276;2023-05-07T13:18:38;1029.95;;;835.03;;
57231;SDS011;43488;46.934;8.276;2023-05-07T13:21:07;1029.63;;;798.55;;
57231;SDS011;43488;46.934;8.276;2023-05-07T13:23:34;1024.63;;;850.00;;
57231;SDS011;43488;46.934;8.276;2023-05-07T13:26:02;1024.53;;;790.00;;
57231;SDS011;43488;46.934;8.276;2023-05-07T13:28:29;1018.95;;;830.25;;
57231;SDS011;43488;46.934;8.276;2023-05-07T13:30:56;1002.58;;;825.22;;
57231;SDS011;43488;46.934;8.276;2023-05-07T13:33:24;1023.95;;;852.53;;
57231;SDS011;43488;46.934;8.276;2023-05-07T13:35:51;1017.40;;;788.53;;
57231;SDS011;43488;46.934;8.276;2023-05-07T13:38:19;1018.63;;;832.30;;
57231;SDS011;43488;46.934;8.276;2023-05-07T13:40:46;1013.83;;;832.70;;
57231;SDS011;43488;46.934;8.276;2023-05-07T13:43:14;1019.20;;;850.45;;
57231;SDS011;43488;46.934;8.276;2023-05-07T13:45:43;1027.53;;;796.70;;
57231;SDS011;43488;46.934;8.276;2023-05-07T13:48:11;1040.32;;;808.10;;
57231;SDS011;43488;46.934;8.276;2023-05-07T13:50:39;1036.55;;;813.13;;
57231;SDS011;43488;46.934;8.276;2023-05-07T13:53:07;1026.18;;;849.20;;
57231;SDS011;43488;46.934;8.276;2023-05-07T13:55:35;1017.65;;;832.78;;
57231;SDS011;43488;46.934;8.276;2023-05-07T13:58:04;1036.10;;;806.47;;
57231;SDS011;43488;46.934;8.276;2023-05-07T14:00:31;1016.55;;;833.08;;
57231;SDS011;43488;46.934;8.276;2023-05-07T14:02:58;1044.75;;;825.15;;
57231;SDS011;43488;46.934;8.276;2023-05-07T14:05:26;1031.35;;;803.15;;
57231;SDS011;43488;46.934;8.276;2023-05-07T14:07:55;1031.50;;;800.13;;
57231;SDS011;43488;46.934;8.276;2023-05-07T14:10:24;1028.55;;;806.05;;
57231;SDS011;43488;46.934;8.276;2023-05-07T14:12:52;1025.55;;;849.15;;
57231;SDS011;43488;46.934;8.276;2023-05-07T14:15:19;1029.20;;;797.58;;
57231;SDS011;43488;46.934;8.276;2023-05-07T14:17:46;1035.10;;;803.50;;
57231;SDS011;43488;46.934;8.276;2023-05-07T14:20:15;1026.47;;;803.97;;
57231;SDS011;43488;46.934;8.276;2023-05-07T14:22:42;1046.70;;;824.00;;
57231;SDS011;43488;46.934;8.276;2023-05-07T14:25:10;1023.50;;;797.63;;
57231;SDS011;43488;46.934;8.276;2023-05-07T14:27:37;1035.72;;;803.35;;
57231;SDS011;43488;46.934;8.276;2023-05-07T14:30:05;1030.90;;;802.65;;
57231;SDS011;43488;46.934;8.276;2023-05-07T14:32:33;1043.75;;;820.78;;
57231;SDS011;43488;46.934;8.276;2023-05-07T14:35:01;1011.38;;;828.75;;
57231;SDS011;43488;46.934;8.276;2023-05-07T14:37:28;1016.30;;;830.42;;
57231;SDS011;43488;46.934;8.276;2023-05-07T14:39:55;1009.45;;;831.10;;
57231;SDS011;43488;46.934;8.276;2023-05-07T14:42:25;1042.70;;;825.25;;
57231;SDS011;43488;46.934;8.276;2023-05-07T14:44:52;1027.05;;;794.70;;
57231;SDS011;43488;46.934;8.276;2023-05-07T14:47:20;1046.85;;;808.22;;
57231;SDS011;43488;46.934;8.276;2023-05-07T14:49:47;1003.30;;;828.33;;
57231;SDS011;43488;46.934;8.276;2023-05-07T14:52:14;1043.70;;;818.10;;
57231;SDS011;43488;46.934;8.276;2023-05-07T14:54:42;1017.05;;;791.60;;
57231;SDS011;43488;46.934;8.276;2023-05-07T14:57:10;1031.60;;;798.13;;
57231;SDS011;43488;46.934;8.276;2023-05-07T14:59:42;1000.38;;;823.50;;